createdAt,value
2023-04-02T00:02:23.806Z,8.40
2023-04-02T00:05:22.415Z,8.30
2023-04-02T00:07:52.165Z,8.30
2023-04-02T00:10:39.221Z,8.30
2023-04-02T00:13:12.459Z,8.30
2023-04-02T00:15:42.018Z,8.40
2023-04-02T00:18:25.414Z,8.30
2023-04-02T00:21:06.076Z,8.30
2023-04-02T00:23:35.948Z,8.10
2023-04-02T00:26:07.427Z,8.30
2023-04-02T00:28:36.532Z,8.00
2023-04-02T00:31:11.178Z,7.80
2023-04-02T00:33:38.966Z,8.10
2023-04-02T00:36:09.109Z,7.90
2023-04-02T00:38:36.974Z,7.80
2023-04-02T00:41:12.832Z,7.80
2023-04-02T00:43:54.840Z,7.80
2023-04-02T00:49:46.501Z,7.90
2023-04-02T00:52:17.508Z,7.70
2023-04-02T00:54:53.351Z,7.80
2023-04-02T00:57:27.154Z,7.70
2023-04-02T01:03:23.424Z,7.80
2023-04-02T01:05:56.839Z,7.70
2023-04-02T01:08:54.799Z,7.70
2023-04-02T01:11:43.616Z,7.60
2023-04-02T01:14:42.011Z,7.70
2023-04-02T01:17:33.081Z,7.70
2023-04-02T01:20:24.545Z,7.60
2023-04-02T01:23:32.610Z,7.60
2023-04-02T01:26:19.275Z,7.60
2023-04-02T01:29:07.182Z,7.60
2023-04-02T01:31:35.932Z,7.70
2023-04-02T01:34:06.915Z,7.80
2023-04-02T01:37:00.328Z,7.60
2023-04-02T01:39:33.415Z,7.60
2023-04-02T01:42:22.437Z,7.50
2023-04-02T01:44:52.619Z,7.50
2023-04-02T01:47:41.805Z,7.70
2023-04-02T01:50:33.276Z,7.60
2023-04-02T01:53:04.744Z,7.60
2023-04-02T01:55:41.275Z,7.50
2023-04-02T01:58:14.255Z,7.40
2023-04-02T02:01:17.638Z,7.40
2023-04-02T02:03:46.087Z,7.30
2023-04-02T02:06:18.653Z,7.30
2023-04-02T02:08:51.537Z,7.20
2023-04-02T02:11:26.131Z,7.10
2023-04-02T02:14:01.899Z,7.10
2023-04-02T02:16:32.107Z,7.10
2023-04-02T02:19:18.631Z,7.10
2023-04-02T02:21:52.403Z,7.10
2023-04-02T02:24:30.632Z,7.10
2023-04-02T02:27:33.373Z,7.10
2023-04-02T02:30:27.944Z,7.10
2023-04-02T02:33:26.943Z,7.10
2023-04-02T02:36:05.025Z,7.10
2023-04-02T02:39:05.334Z,7.20
2023-04-02T02:41:58.109Z,7.10
2023-04-02T02:44:29.498Z,7.10
2023-04-02T02:47:05.443Z,7.00
2023-04-02T02:49:40.055Z,7.00
2023-04-02T02:52:26.119Z,6.90
2023-04-02T02:55:09.789Z,7.00
2023-04-02T02:57:53.395Z,7.00
2023-04-02T03:00:24.921Z,6.90
2023-04-02T03:02:57.243Z,7.00
2023-04-02T03:05:30.419Z,7.00
2023-04-02T03:08:07.401Z,7.20
2023-04-02T03:10:38.680Z,7.20
2023-04-02T03:13:35.859Z,7.20
2023-04-02T03:16:26.111Z,7.20
2023-04-02T03:22:38.948Z,7.10
2023-04-02T03:25:51.503Z,7.10
2023-04-02T03:28:27.463Z,7.10
2023-04-02T03:31:32.609Z,7.10
2023-04-02T03:34:33.190Z,7.10
2023-04-02T03:37:21.713Z,7.10
2023-04-02T03:40:16.131Z,7.00
2023-04-02T03:42:53.816Z,6.90
2023-04-02T03:45:31.220Z,6.90
2023-04-02T03:48:30.891Z,6.90
2023-04-02T03:51:11.640Z,6.90
2023-04-02T03:53:41.838Z,7.00
2023-04-02T03:56:16.825Z,6.70
2023-04-02T03:58:52.219Z,6.70
2023-04-02T04:02:07.316Z,6.50
2023-04-02T04:04:41.325Z,6.50
2023-04-02T04:07:23.203Z,6.50
2023-04-02T04:09:53.703Z,6.70
2023-04-02T04:12:33.094Z,6.50
2023-04-02T04:15:40.970Z,6.40
2023-04-02T04:18:41.071Z,6.40
2023-04-02T04:21:30.300Z,6.50
2023-04-02T04:24:25.430Z,6.60
2023-04-02T04:27:38.050Z,6.70
2023-04-02T04:30:23.529Z,6.70
2023-04-02T04:33:11.824Z,6.70
2023-04-02T04:35:52.583Z,6.60
2023-04-02T04:38:39.739Z,6.60
2023-04-02T04:41:41.213Z,6.50
2023-04-02T04:44:24.887Z,6.40
2023-04-02T04:47:19.052Z,6.30
2023-04-02T04:49:56.899Z,6.20
2023-04-02T04:52:28.713Z,6.20
2023-04-02T04:54:57.767Z,6.10
2023-04-02T04:57:32.752Z,6.10
2023-04-02T05:00:33.227Z,6.10
2023-04-02T05:03:30.104Z,6.00
2023-04-02T05:06:09.483Z,6.00
2023-04-02T05:08:48.552Z,6.00
2023-04-02T05:11:28.578Z,6.10
2023-04-02T05:14:29.733Z,6.20
2023-04-02T05:17:17.816Z,6.00
2023-04-02T05:19:53.237Z,6.00
2023-04-02T05:22:45.587Z,5.90
2023-04-02T05:25:26.125Z,6.00
2023-04-02T05:28:27.146Z,6.00
2023-04-02T05:31:22.476Z,6.00
2023-04-02T05:34:00.081Z,6.10
2023-04-02T05:36:30.058Z,6.00
2023-04-02T05:39:00.999Z,6.10
2023-04-02T05:41:49.849Z,6.30
2023-04-02T05:44:49.861Z,6.30
2023-04-02T05:47:25.041Z,6.20
2023-04-02T05:49:59.692Z,6.10
2023-04-02T05:52:32.652Z,6.00
2023-04-02T05:55:42.836Z,5.90
2023-04-02T05:58:45.766Z,5.90
2023-04-02T06:01:31.700Z,5.90
2023-04-02T06:04:18.586Z,5.90
2023-04-02T06:07:14.564Z,6.20
2023-04-02T06:09:58.162Z,6.10
2023-04-02T06:12:46.653Z,6.20
2023-04-02T06:15:18.344Z,6.20
2023-04-02T06:17:53.945Z,6.30
2023-04-02T06:20:36.308Z,6.30
2023-04-02T06:23:23.927Z,6.30
2023-04-02T06:25:57.264Z,6.30
2023-04-02T06:28:48.354Z,6.30
2023-04-02T06:31:45.156Z,6.10
2023-04-02T06:34:29.871Z,6.20
2023-04-02T06:37:05.016Z,6.20
2023-04-02T06:39:37.290Z,6.20
2023-04-02T06:42:28.319Z,6.20
2023-04-02T06:45:25.879Z,6.30
2023-04-02T06:48:21.737Z,6.30
2023-04-02T06:51:00.896Z,6.20
2023-04-02T06:53:41.410Z,6.10
2023-04-02T06:56:34.730Z,6.10
2023-04-02T06:59:07.788Z,6.10
2023-04-02T07:01:58.971Z,6.10
2023-04-02T07:04:29.248Z,6.00
2023-04-02T07:06:57.021Z,6.10
2023-04-02T07:09:27.156Z,6.30
2023-04-02T07:11:58.033Z,6.00
2023-04-02T07:14:25.235Z,6.00
2023-04-02T07:16:57.304Z,6.10
2023-04-02T07:19:27.801Z,6.00
2023-04-02T07:21:59.174Z,6.00
2023-04-02T07:24:37.507Z,5.90
2023-04-02T07:27:07.379Z,6.00
2023-04-02T07:29:35.674Z,5.90
2023-04-02T07:32:02.801Z,6.10
2023-04-02T07:34:30.277Z,5.90
2023-04-02T07:36:57.499Z,6.10
2023-04-02T07:39:26.348Z,6.10
2023-04-02T07:42:00.239Z,6.20
2023-04-02T07:44:28.773Z,6.40
2023-04-02T07:46:56.926Z,6.10
2023-04-02T07:49:24.387Z,6.20
2023-04-02T07:51:52.412Z,6.10
2023-04-02T07:54:28.225Z,5.90
2023-04-02T07:56:55.440Z,5.80
2023-04-02T07:59:22.667Z,5.80
2023-04-02T08:01:49.897Z,5.80
2023-04-02T08:07:12.038Z,5.60
2023-04-02T08:09:38.964Z,5.80
2023-04-02T08:12:06.178Z,5.70
2023-04-02T08:14:33.093Z,5.70
2023-04-02T08:17:00.136Z,5.70
2023-04-02T08:19:27.114Z,5.80
2023-04-02T08:21:54.552Z,5.90
2023-04-02T08:24:22.200Z,6.00
2023-04-02T08:26:51.529Z,6.20
2023-04-02T08:29:18.556Z,6.30
2023-04-02T08:31:45.889Z,6.20
2023-04-02T08:34:16.544Z,6.10
2023-04-02T08:36:45.236Z,6.20
2023-04-02T08:39:13.037Z,6.20
2023-04-02T08:42:00.651Z,6.30
2023-04-02T08:44:45.653Z,6.30
2023-04-02T08:47:14.364Z,6.10
2023-04-02T08:49:44.611Z,6.20
2023-04-02T08:52:34.622Z,5.80
2023-04-02T08:55:02.818Z,5.90
2023-04-02T08:57:48.763Z,6.00
2023-04-02T09:00:16.191Z,6.10
2023-04-02T09:02:50.795Z,6.10
2023-04-02T09:05:26.539Z,6.20
2023-04-02T09:07:55.155Z,6.20
2023-04-02T09:10:33.074Z,6.50
2023-04-02T09:13:01.493Z,6.50
2023-04-02T09:15:31.693Z,6.60
2023-04-02T09:18:13.345Z,6.80
2023-04-02T09:20:40.808Z,6.80
2023-04-02T09:23:18.544Z,6.90
2023-04-02T09:26:00.919Z,7.00
2023-04-02T09:28:30.976Z,6.80
2023-04-02T09:31:32.056Z,6.80
2023-04-02T09:33:58.974Z,6.70
2023-04-02T09:36:37.789Z,6.80
2023-04-02T09:39:18.728Z,6.90
2023-04-02T09:41:55.754Z,7.00
2023-04-02T09:44:31.813Z,7.00
2023-04-02T09:47:04.876Z,7.10
2023-04-02T09:49:38.452Z,7.10
2023-04-02T09:52:08.642Z,7.30
2023-04-02T09:54:41.922Z,7.00
2023-04-02T09:57:25.409Z,7.10
2023-04-02T10:00:31.930Z,7.30
2023-04-02T10:03:03.102Z,7.50
2023-04-02T10:05:40.707Z,7.70
2023-04-02T10:08:18.975Z,7.60
2023-04-02T10:10:52.856Z,7.20
2023-04-02T10:13:31.820Z,7.00
2023-04-02T10:16:01.098Z,6.80
2023-04-02T10:18:46.841Z,7.00
2023-04-02T10:21:38.464Z,7.00
2023-04-02T10:24:15.208Z,6.90
2023-04-02T10:27:03.369Z,6.90
2023-04-02T10:29:42.573Z,6.90
2023-04-02T10:32:20.233Z,7.10
2023-04-02T10:34:58.656Z,6.90
2023-04-02T10:37:44.447Z,6.70
2023-04-02T10:40:38.060Z,6.80
2023-04-02T10:43:42.614Z,7.00
2023-04-02T10:46:15.650Z,7.20
2023-04-02T10:49:20.682Z,7.30
2023-04-02T10:52:00.784Z,7.40
2023-04-02T10:54:39.464Z,7.30
2023-04-02T10:57:22.452Z,6.90
2023-04-02T11:00:30.691Z,6.80
2023-04-02T11:03:13.585Z,6.60
2023-04-02T11:05:51.218Z,6.30
2023-04-02T11:08:40.054Z,6.10
2023-04-02T11:11:26.723Z,6.20
2023-04-02T11:14:05.643Z,6.40
2023-04-02T11:16:35.561Z,6.40
2023-04-02T11:19:16.602Z,6.50
2023-04-02T11:22:06.643Z,6.80
2023-04-02T11:24:52.492Z,7.00
2023-04-02T11:27:33.833Z,7.10
2023-04-02T11:30:18.194Z,7.30
2023-04-02T11:32:49.950Z,7.20
2023-04-02T11:35:32.214Z,6.80
2023-04-02T11:38:22.946Z,6.80
2023-04-02T11:40:50.732Z,6.80
2023-04-02T11:43:33.531Z,6.60
2023-04-02T11:46:01.502Z,6.50
2023-04-02T11:48:36.463Z,6.90
2023-04-02T11:51:32.761Z,7.10
2023-04-02T11:53:59.925Z,7.50
2023-04-02T11:56:29.820Z,7.60
2023-04-02T11:59:12.932Z,7.70
2023-04-02T12:02:02.910Z,7.90
2023-04-02T12:04:58.914Z,8.10
2023-04-02T12:07:52.176Z,8.20
2023-04-02T12:10:34.521Z,8.10
2023-04-02T12:13:01.781Z,7.60
2023-04-02T12:15:46.642Z,7.50
2023-04-02T12:18:25.410Z,7.70
2023-04-02T12:20:56.018Z,7.40
2023-04-02T12:23:37.314Z,7.20
2023-04-02T12:26:24.456Z,7.10
2023-04-02T12:28:52.131Z,7.10
2023-04-02T12:31:25.474Z,7.20
2023-04-02T12:33:53.412Z,7.20
2023-04-02T12:36:23.856Z,7.50
2023-04-02T12:38:54.078Z,7.80
2023-04-02T12:41:31.020Z,7.70
2023-04-02T12:44:06.726Z,7.50
2023-04-02T12:46:36.039Z,7.30
2023-04-02T12:49:08.177Z,7.10
2023-04-02T12:51:37.225Z,7.30
2023-04-02T12:54:06.086Z,7.40
2023-04-02T12:56:33.060Z,7.50
2023-04-02T12:59:01.324Z,7.50
2023-04-02T13:01:31.572Z,7.70
2023-04-02T13:04:01.865Z,7.70
2023-04-02T13:06:30.824Z,7.70
2023-04-02T13:08:58.879Z,7.60
2023-04-02T13:11:40.717Z,7.50
2023-04-02T13:14:18.022Z,7.00
2023-04-02T13:16:45.065Z,7.00
2023-04-02T13:19:21.224Z,6.80
2023-04-02T13:21:52.574Z,7.00
2023-04-02T13:24:22.230Z,7.10
2023-04-02T13:26:51.236Z,7.10
2023-04-02T13:29:33.776Z,7.20
2023-04-02T13:32:05.951Z,7.50
2023-04-02T13:34:33.990Z,7.70
2023-04-02T13:37:01.541Z,8.20
2023-04-02T13:39:30.328Z,8.30
2023-04-02T13:42:03.040Z,8.50
2023-04-02T13:44:32.261Z,8.80
2023-04-02T13:46:59.859Z,8.80
2023-04-02T13:49:27.650Z,8.90
2023-04-02T13:52:05.568Z,9.00
2023-04-02T13:54:54.916Z,9.00
2023-04-02T13:57:22.621Z,8.80
2023-04-02T13:59:49.941Z,8.40
2023-04-02T14:02:22.101Z,8.40
2023-04-02T14:04:51.166Z,8.40
2023-04-02T14:07:42.702Z,8.30
2023-04-02T14:10:45.749Z,8.20
2023-04-02T14:13:20.849Z,8.40
2023-04-02T14:15:59.872Z,8.60
2023-04-02T14:18:45.936Z,8.60
2023-04-02T14:21:34.256Z,8.50
2023-04-02T14:24:36.332Z,8.40
2023-04-02T14:27:06.761Z,8.40
2023-04-02T14:30:05.148Z,8.60
2023-04-02T14:33:08.942Z,8.60
2023-04-02T14:35:38.875Z,8.60
2023-04-02T14:38:37.718Z,8.50
2023-04-02T14:41:48.377Z,8.60
2023-04-02T14:44:20.847Z,8.60
2023-04-02T14:46:49.000Z,8.50
2023-04-02T14:49:31.000Z,8.00
2023-04-02T14:52:04.392Z,7.80
2023-04-02T14:54:43.587Z,8.00
2023-04-02T14:57:27.927Z,7.70
2023-04-02T15:00:04.146Z,7.70
2023-04-02T15:03:07.811Z,7.70
2023-04-02T15:05:42.658Z,7.80
2023-04-02T15:08:27.411Z,7.80
2023-04-02T15:11:17.013Z,7.80
2023-04-02T15:13:59.317Z,7.70
2023-04-02T15:16:29.309Z,7.50
2023-04-02T15:18:57.506Z,7.40
2023-04-02T15:21:59.040Z,7.30
2023-04-02T15:25:18.650Z,7.20
2023-04-02T15:27:47.018Z,7.30
2023-04-02T15:30:37.309Z,7.80
2023-04-02T15:33:36.396Z,7.70
2023-04-02T15:36:09.417Z,7.70
2023-04-02T15:38:44.447Z,7.90
2023-04-02T15:41:27.550Z,7.90
2023-04-02T15:44:15.715Z,8.00
2023-04-02T15:47:14.706Z,7.80
2023-04-02T15:50:21.829Z,7.60
2023-04-02T15:53:23.536Z,7.80
2023-04-02T15:56:00.865Z,7.70
2023-04-02T15:58:49.322Z,7.70
2023-04-02T16:01:31.669Z,7.60
2023-04-02T16:04:13.723Z,7.50
2023-04-02T16:07:15.534Z,7.60
2023-04-02T16:10:11.951Z,7.80
2023-04-02T16:12:42.439Z,7.90
2023-04-02T16:15:30.524Z,7.60
2023-04-02T16:18:14.052Z,7.50
2023-04-02T16:20:47.401Z,7.40
2023-04-02T16:23:27.009Z,7.30
2023-04-02T16:26:22.016Z,7.50
2023-04-02T16:29:19.900Z,7.80
2023-04-02T16:32:10.492Z,7.50
2023-04-02T16:34:53.139Z,7.60
2023-04-02T16:37:28.856Z,7.50
2023-04-02T16:40:09.821Z,7.50
2023-04-02T16:43:14.157Z,7.50
2023-04-02T16:46:12.157Z,7.60
2023-04-02T16:48:59.133Z,7.70
2023-04-02T16:51:37.279Z,7.70
2023-04-02T16:54:40.357Z,7.70
2023-04-02T16:57:10.473Z,7.80
2023-04-02T17:00:10.624Z,7.80
2023-04-02T17:03:11.761Z,7.90
2023-04-02T17:05:47.826Z,7.90
2023-04-02T17:08:27.628Z,7.90
2023-04-02T17:11:10.338Z,8.00
2023-04-02T17:13:47.901Z,8.10
2023-04-02T17:16:32.601Z,8.10
2023-04-02T17:19:02.344Z,8.10
2023-04-02T17:21:31.082Z,8.00
2023-04-02T17:24:06.790Z,8.00
2023-04-02T17:26:37.424Z,8.00
2023-04-02T17:29:12.287Z,7.90
2023-04-02T17:31:45.906Z,7.80
2023-04-02T17:34:15.349Z,7.80
2023-04-02T17:36:48.279Z,7.70
2023-04-02T17:39:25.749Z,7.60
2023-04-02T17:42:02.929Z,7.70
2023-04-02T17:45:03.799Z,7.60
2023-04-02T17:47:51.781Z,7.60
2023-04-02T17:50:26.045Z,7.60
2023-04-02T17:53:25.857Z,7.30
2023-04-02T17:55:52.762Z,7.20
2023-04-02T17:58:50.302Z,7.20
2023-04-02T18:01:25.219Z,7.10
2023-04-02T18:04:10.763Z,7.00
2023-04-02T18:06:49.217Z,6.80
2023-04-02T18:09:28.438Z,6.80
2023-04-02T18:12:19.894Z,6.70
2023-04-02T18:15:33.372Z,6.60
2023-04-02T18:18:14.079Z,6.50
2023-04-02T18:21:19.510Z,6.40
2023-04-02T18:24:20.726Z,6.20
2023-04-02T18:27:15.561Z,6.20
2023-04-02T18:30:06.704Z,6.00
2023-04-02T18:33:38.299Z,6.00
2023-04-02T18:36:11.675Z,5.90
2023-04-02T18:38:55.824Z,5.90
2023-04-02T18:41:44.638Z,5.90
2023-04-02T18:44:29.866Z,5.90
2023-04-02T18:47:03.706Z,5.80
2023-04-02T18:49:46.169Z,5.80
2023-04-02T18:52:15.380Z,5.80
2023-04-02T18:55:10.512Z,6.00
2023-04-02T18:57:40.248Z,5.90
2023-04-02T19:00:26.350Z,6.00
2023-04-02T19:02:57.422Z,6.10
2023-04-02T19:05:37.720Z,6.00
2023-04-02T19:08:21.762Z,6.10
2023-04-02T19:10:59.016Z,6.00
2023-04-02T19:13:26.230Z,6.00
2023-04-02T19:16:19.082Z,6.00
2023-04-02T19:18:55.196Z,5.90
2023-04-02T19:21:33.112Z,5.80
2023-04-02T19:24:28.171Z,5.80
2023-04-02T19:27:19.269Z,5.80
2023-04-02T19:29:46.284Z,5.90
2023-04-02T19:32:39.215Z,5.80
2023-04-02T19:35:15.095Z,5.90
2023-04-02T19:37:52.506Z,5.80
2023-04-02T19:40:39.274Z,5.80
2023-04-02T19:43:09.541Z,5.80
2023-04-02T19:45:39.429Z,6.20
2023-04-02T19:48:21.886Z,6.10
2023-04-02T19:50:49.539Z,6.10
2023-04-02T19:53:17.121Z,6.20
2023-04-02T19:55:45.111Z,6.10
2023-04-02T19:58:30.574Z,6.30
2023-04-02T20:00:59.985Z,6.20
2023-04-02T20:03:30.488Z,6.10
2023-04-02T20:05:59.671Z,6.20
2023-04-02T20:08:27.763Z,6.30
2023-04-02T20:10:55.809Z,6.50
2023-04-02T20:13:23.027Z,6.50
2023-04-02T20:15:53.461Z,6.50
2023-04-02T20:18:21.893Z,6.50
2023-04-02T20:20:49.933Z,6.40
2023-04-02T20:23:17.779Z,6.30
2023-04-02T20:25:47.086Z,6.30
2023-04-02T20:28:14.780Z,6.30
2023-04-02T20:30:42.353Z,6.40
2023-04-02T20:33:10.581Z,6.40
2023-04-02T20:35:38.849Z,6.20
2023-04-02T20:38:08.206Z,6.30
2023-04-02T20:40:36.082Z,6.20
2023-04-02T20:43:03.238Z,6.10
2023-04-02T20:45:30.690Z,6.30
2023-04-02T20:47:58.591Z,6.20
2023-04-02T20:50:29.187Z,6.30
2023-04-02T20:52:58.750Z,6.30
2023-04-02T20:55:26.006Z,6.30
2023-04-02T20:57:55.085Z,6.10
2023-04-02T21:00:23.245Z,5.90
2023-04-02T21:02:50.563Z,5.90
2023-04-02T21:05:17.588Z,5.70
2023-04-02T21:07:44.749Z,5.50
2023-04-02T21:10:13.367Z,5.50
2023-04-02T21:12:40.505Z,5.30
2023-04-02T21:15:08.343Z,5.30
2023-04-02T21:17:35.608Z,5.30
2023-04-02T21:20:04.874Z,5.30
2023-04-02T21:22:32.188Z,5.10
2023-04-02T21:24:59.310Z,5.00
2023-04-02T21:27:26.734Z,5.00
2023-04-02T21:29:53.637Z,4.90
2023-04-02T21:32:22.193Z,5.10
2023-04-02T21:34:49.562Z,4.90
2023-04-02T21:37:18.426Z,4.80
2023-04-02T21:39:45.439Z,4.70
2023-04-02T21:42:13.611Z,4.70
2023-04-02T21:44:40.697Z,4.70
2023-04-02T21:47:09.102Z,4.60
2023-04-02T21:49:36.183Z,4.50
2023-04-02T21:52:03.694Z,4.60
2023-04-02T21:54:30.804Z,4.70
2023-04-02T21:57:02.322Z,4.50
2023-04-02T21:59:30.971Z,4.50
2023-04-02T22:01:58.124Z,4.40
2023-04-02T22:04:26.577Z,4.30
2023-04-02T22:06:55.786Z,4.20
2023-04-02T22:09:24.607Z,4.20
2023-04-02T22:11:54.988Z,4.20
2023-04-02T22:14:22.081Z,4.20
2023-04-02T22:16:49.126Z,4.40
2023-04-02T22:19:17.164Z,4.20
2023-04-02T22:21:46.217Z,4.30
2023-04-02T22:24:15.552Z,4.10
2023-04-02T22:26:44.549Z,4.10
2023-04-02T22:29:12.317Z,4.10
2023-04-02T22:31:39.851Z,4.10
2023-04-02T22:34:07.407Z,4.10
2023-04-02T22:36:35.205Z,4.00
2023-04-02T22:39:05.688Z,4.00
2023-04-02T22:41:33.341Z,4.00
2023-04-02T22:44:01.376Z,3.90
2023-04-02T22:46:29.525Z,3.90
2023-04-02T22:48:56.743Z,3.80
2023-04-02T22:51:25.528Z,3.90
2023-04-02T22:53:54.348Z,3.90
2023-04-02T22:56:27.929Z,3.90
2023-04-02T22:58:54.980Z,3.80
2023-04-02T23:01:25.869Z,3.80
2023-04-02T23:03:58.145Z,3.90
2023-04-02T23:06:26.288Z,3.80
2023-04-02T23:08:53.647Z,3.70
2023-04-02T23:11:23.827Z,3.70
2023-04-02T23:13:54.846Z,3.50
2023-04-02T23:16:23.247Z,3.50
2023-04-02T23:18:51.964Z,3.50
2023-04-02T23:21:21.449Z,3.50
2023-04-02T23:23:49.106Z,3.50
2023-04-02T23:26:19.908Z,3.40
2023-04-02T23:28:47.152Z,3.40
2023-04-02T23:31:18.093Z,3.40
2023-04-02T23:33:46.698Z,3.30
2023-04-02T23:36:28.501Z,3.30
2023-04-02T23:39:01.752Z,3.50
2023-04-02T23:41:30.242Z,3.30
2023-04-02T23:43:58.667Z,3.30
2023-04-02T23:46:27.497Z,3.20
2023-04-02T23:48:55.992Z,3.20
2023-04-02T23:51:24.283Z,3.30
2023-04-02T23:53:53.687Z,3.20
2023-04-02T23:56:23.625Z,3.10
2023-04-02T23:58:51.143Z,3.10
